Terminal Aerodrome Forecast
Issued by NWS

Home | Current Version | Previous Version | Text Only | Print | Product List | Glossary On
Versions: 1 2 3 4 5 6 7 8 9 10 11 12 13 14
000
FTUS45 KABQ 281126
TAFTCC
TAF
KTCC 281126Z 2812/2912 22007KT P6SM FEW120
     FM282100 15011KT P6SM VCSH BKN080
     FM290000 07015KT P6SM VCTS BKN060CB OVC120
     FM290200 02013KT P6SM OVC060
      TEMPO 2902/2906 5SM -TSRA OVC040CB
     FM290600 03009KT P6SM BKN050=

USA.gov is the U.S. government's official web portal to all federal, state and local government web resources and services.